createdAt,value
2019-03-11T00:01:41.011Z,100551.77
2019-03-11T00:04:11.946Z,100544.91
2019-03-11T00:06:41.790Z,100535.90
2019-03-11T00:09:11.356Z,100543.61
2019-03-11T00:11:42.411Z,100535.03
2019-03-11T00:14:11.825Z,100535.02
2019-03-11T00:16:41.261Z,100538.45
2019-03-11T00:19:10.681Z,100534.16
2019-03-11T00:21:40.165Z,100536.30
2019-03-11T00:24:09.600Z,100527.70
2019-03-11T00:26:39.010Z,100527.27
2019-03-11T00:29:08.448Z,100524.70
2019-03-11T00:31:37.864Z,100528.56
2019-03-11T00:34:07.300Z,100527.27
2019-03-11T00:36:38.331Z,100518.69
2019-03-11T00:39:07.819Z,100521.70
2019-03-11T00:41:37.567Z,100509.24
2019-03-11T00:44:07.010Z,100514.81
2019-03-11T00:46:36.411Z,100516.55
2019-03-11T00:49:06.573Z,100507.92
2019-03-11T00:51:35.985Z,100507.92
2019-03-11T00:54:05.495Z,100510.52
2019-03-11T00:56:34.928Z,100512.64
2019-03-11T00:59:04.481Z,100508.37
2019-03-11T01:01:33.932Z,100515.24
2019-03-11T01:04:03.371Z,100512.23
2019-03-11T01:06:32.805Z,100512.66
2019-03-11T01:09:02.213Z,100515.66
2019-03-11T01:11:33.271Z,100515.26
2019-03-11T01:14:02.757Z,100514.41
2019-03-11T01:16:32.258Z,100510.95
2019-03-11T01:19:01.787Z,100512.22
2019-03-11T01:21:31.279Z,100506.22
2019-03-11T01:24:00.783Z,100509.62
2019-03-11T01:26:30.198Z,100501.90
2019-03-11T01:29:01.106Z,100503.19
2019-03-11T01:31:30.525Z,100498.42
2019-03-11T01:33:59.962Z,100499.30
2019-03-11T01:36:29.387Z,100499.30
2019-03-11T01:38:58.792Z,100493.27
2019-03-11T01:41:28.224Z,100502.31
2019-03-11T01:43:57.643Z,100497.18
2019-03-11T01:46:27.072Z,100492.86
2019-03-11T01:48:56.496Z,100489.45
2019-03-11T01:51:26.000Z,100480.39
2019-03-11T01:53:55.684Z,100482.98
2019-03-11T01:56:25.123Z,100488.12
2019-03-11T01:58:54.630Z,100492.88
2019-03-11T02:01:24.109Z,100490.73
2019-03-11T02:03:56.516Z,100484.71
2019-03-11T02:06:28.799Z,100479.14
2019-03-11T02:08:58.222Z,100479.55
2019-03-11T02:11:27.663Z,100480.41
2019-03-11T02:13:57.116Z,100477.41
2019-03-11T02:16:26.509Z,100478.28
2019-03-11T02:18:55.919Z,100470.13
2019-03-11T02:21:25.340Z,100475.28
2019-03-11T02:23:54.759Z,100477.41
2019-03-11T02:26:24.189Z,100475.67
2019-03-11T02:28:53.614Z,100474.39
2019-03-11T02:31:23.123Z,100480.83
2019-03-11T02:33:52.533Z,100476.94
2019-03-11T02:36:21.957Z,100482.53
2019-03-11T02:38:51.369Z,100486.41
2019-03-11T02:41:20.794Z,100489.41
2019-03-11T02:43:50.227Z,100489.86
2019-03-11T02:46:19.784Z,100475.22
2019-03-11T02:48:49.255Z,100489.39
2019-03-11T02:51:18.640Z,100486.39
2019-03-11T02:53:48.047Z,100485.11
2019-03-11T02:56:19.512Z,100483.39
2019-03-11T02:58:48.584Z,100487.27
2019-03-11T03:01:35.804Z,100478.23
2019-03-11T03:04:23.399Z,100473.07
2019-03-11T03:06:52.901Z,100471.78
2019-03-11T03:09:22.310Z,100481.22
2019-03-11T03:11:51.749Z,100480.39
2019-03-11T03:14:21.158Z,100476.08
2019-03-11T03:16:50.604Z,100485.97
2019-03-11T03:19:20.041Z,100480.81
2019-03-11T03:21:49.446Z,100477.77
2019-03-11T03:24:18.952Z,100477.78
2019-03-11T03:26:48.389Z,100474.34
2019-03-11T03:29:17.812Z,100470.52
2019-03-11T03:31:47.241Z,100471.80
2019-03-11T03:34:16.691Z,100462.33
2019-03-11T03:36:46.781Z,100465.80
2019-03-11T03:39:16.204Z,100458.07
2019-03-11T03:41:45.627Z,100464.07
2019-03-11T03:44:15.205Z,100463.66
2019-03-11T03:46:44.623Z,100471.41
2019-03-11T03:49:14.065Z,100468.38
2019-03-11T03:51:43.500Z,100459.34
2019-03-11T03:54:12.957Z,100459.77
2019-03-11T03:56:42.375Z,100459.80
2019-03-11T03:59:12.880Z,100465.38
2019-03-11T04:01:42.400Z,100459.80
2019-03-11T04:04:11.797Z,100463.67
2019-03-11T04:06:44.250Z,100450.78
2019-03-11T04:09:13.722Z,100461.94
2019-03-11T04:11:43.147Z,100458.91
2019-03-11T04:14:12.623Z,100469.66
2019-03-11T04:16:42.112Z,100469.20
2019-03-11T04:19:11.597Z,100463.64
2019-03-11T04:21:41.178Z,100462.36
2019-03-11T04:24:10.726Z,100461.52
2019-03-11T04:26:43.095Z,100458.08
2019-03-11T04:29:12.494Z,100463.25
2019-03-11T04:31:42.018Z,100465.84
2019-03-11T04:34:11.485Z,100462.41
2019-03-11T04:36:40.896Z,100467.13
2019-03-11T04:39:10.366Z,100465.84
2019-03-11T04:41:39.806Z,100467.55
2019-03-11T04:44:11.456Z,100473.61
2019-03-11T04:46:40.878Z,100469.30
2019-03-11T04:49:10.288Z,100465.02
2019-03-11T04:51:39.728Z,100474.03
2019-03-11T04:54:09.700Z,100476.17
2019-03-11T04:56:39.120Z,100472.76
2019-03-11T04:59:13.150Z,100475.33
2019-03-11T05:01:42.647Z,100482.19
2019-03-11T05:04:12.147Z,100480.46
2019-03-11T05:06:41.580Z,100471.45
2019-03-11T05:09:11.011Z,100478.75
2019-03-11T05:11:40.439Z,100475.33
2019-03-11T05:14:09.861Z,100478.33
2019-03-11T05:16:39.334Z,100469.33
2019-03-11T05:19:08.765Z,100473.20
2019-03-11T05:21:38.809Z,100472.31
2019-03-11T05:24:08.239Z,100474.46
2019-03-11T05:26:38.496Z,100474.02
2019-03-11T05:29:07.941Z,100474.45
2019-03-11T05:31:37.424Z,100480.06
2019-03-11T05:34:06.866Z,100481.35
2019-03-11T05:36:36.279Z,100480.05
2019-03-11T05:39:07.275Z,100471.05
2019-03-11T05:41:36.748Z,100471.03
2019-03-11T05:44:06.254Z,100465.46
2019-03-11T05:46:35.669Z,100464.19
2019-03-11T05:49:05.163Z,100468.89
2019-03-11T05:51:34.575Z,100466.31
2019-03-11T05:54:04.082Z,100465.47
2019-03-11T05:56:33.661Z,100464.63
2019-03-11T05:59:03.106Z,100463.33
2019-03-11T06:01:32.552Z,100473.20
2019-03-11T06:04:01.982Z,100471.47
2019-03-11T06:06:31.426Z,100480.92
2019-03-11T06:09:00.858Z,100474.89
2019-03-11T06:11:31.888Z,100477.47
2019-03-11T06:14:04.508Z,100482.21
2019-03-11T06:16:33.991Z,100483.91
2019-03-11T06:19:03.432Z,100485.63
2019-03-11T06:21:34.483Z,100491.21
2019-03-11T06:24:03.988Z,100491.65
2019-03-11T06:26:33.404Z,100493.38
2019-03-11T06:29:02.839Z,100483.48
2019-03-11T06:31:32.315Z,100491.63
2019-03-11T06:34:01.751Z,100497.66
2019-03-11T06:36:31.153Z,100495.05
2019-03-11T06:39:05.816Z,100493.77
2019-03-11T06:41:33.302Z,100499.36
2019-03-11T06:44:02.735Z,100504.92
2019-03-11T06:46:32.146Z,100503.61
2019-03-11T06:49:02.214Z,100505.75
2019-03-11T06:51:31.640Z,100514.76
2019-03-11T06:54:03.179Z,100502.26
2019-03-11T06:56:32.602Z,100503.95
2019-03-11T06:59:02.100Z,100500.48
2019-03-11T07:01:31.514Z,100494.48
2019-03-11T07:04:00.957Z,100495.31
2019-03-11T07:06:30.360Z,100497.44
2019-03-11T07:08:59.802Z,100486.69
2019-03-11T07:11:29.418Z,100493.52
2019-03-11T07:13:58.858Z,100493.50
2019-03-11T07:16:28.319Z,100502.91
2019-03-11T07:18:59.272Z,100492.13
2019-03-11T07:21:28.699Z,100499.84
2019-03-11T07:23:59.210Z,100504.12
2019-03-11T07:26:29.973Z,100507.54
2019-03-11T07:28:59.395Z,100511.36
2019-03-11T07:31:28.897Z,100516.04
2019-03-11T07:33:59.381Z,100518.58
2019-03-11T07:36:28.807Z,100515.94
2019-03-11T07:38:58.242Z,100516.79
2019-03-11T07:41:27.695Z,100518.09
2019-03-11T07:43:57.105Z,100515.94
2019-03-11T07:46:26.553Z,100518.11
2019-03-11T07:48:55.965Z,100511.63
2019-03-11T07:51:25.405Z,100517.23
2019-03-11T07:53:54.823Z,100517.25
2019-03-11T07:56:24.331Z,100529.70
2019-03-11T07:58:53.853Z,100529.69
2019-03-11T08:01:23.285Z,100524.98
2019-03-11T08:03:52.713Z,100537.45
2019-03-11T08:06:22.123Z,100546.94
2019-03-11T08:08:51.555Z,100550.40
2019-03-11T08:11:20.968Z,100546.13
2019-03-11T08:13:50.494Z,100554.70
2019-03-11T08:16:20.022Z,100556.45
2019-03-11T08:18:50.524Z,100561.61
2019-03-11T08:21:19.957Z,100562.08
2019-03-11T08:23:49.761Z,100561.63
2019-03-11T08:26:19.214Z,100564.62
2019-03-11T08:28:48.614Z,100571.52
2019-03-11T08:31:18.110Z,100572.35
2019-03-11T08:33:47.516Z,100571.09
2019-03-11T08:36:16.958Z,100565.02
2019-03-11T08:38:46.372Z,100571.03
2019-03-11T08:41:15.804Z,100576.16
2019-03-11T08:43:45.218Z,100583.49
2019-03-11T08:46:14.665Z,100577.88
2019-03-11T08:48:44.166Z,100576.59
2019-03-11T08:51:15.109Z,100575.73
2019-03-11T08:53:44.544Z,100581.81
2019-03-11T08:56:14.032Z,100583.48
2019-03-11T08:58:43.454Z,100587.73
2019-03-11T09:01:12.866Z,100581.66
2019-03-11T09:03:42.371Z,100592.92
2019-03-11T09:06:11.798Z,100592.51
2019-03-11T09:08:41.300Z,100595.48
2019-03-11T09:11:10.818Z,100589.47
2019-03-11T09:13:40.253Z,100589.05
2019-03-11T09:16:09.735Z,100592.05
2019-03-11T09:18:39.174Z,100602.36
2019-03-11T09:21:08.615Z,100607.95
2019-03-11T09:23:38.028Z,100615.76
2019-03-11T09:26:07.451Z,100611.91
2019-03-11T09:28:36.918Z,100622.64
2019-03-11T09:31:06.667Z,100625.62
2019-03-11T09:33:36.162Z,100629.94
2019-03-11T09:36:07.101Z,100626.89
2019-03-11T09:38:36.592Z,100621.70
2019-03-11T09:41:06.166Z,100624.69
2019-03-11T09:43:35.639Z,100620.80
2019-03-11T09:46:05.643Z,100624.16
2019-03-11T09:48:35.183Z,100627.55
2019-03-11T09:51:04.753Z,100633.56
2019-03-11T09:53:34.196Z,100634.00
2019-03-11T09:56:03.591Z,100626.68
2019-03-11T09:58:33.023Z,100630.15
2019-03-11T10:01:02.567Z,100628.86
2019-03-11T10:03:32.001Z,100633.16
2019-03-11T10:06:01.411Z,100642.55
2019-03-11T10:08:30.941Z,100634.34
2019-03-11T10:11:00.407Z,100634.66
2019-03-11T10:13:29.844Z,100632.41
2019-03-11T10:15:59.255Z,100631.41
2019-03-11T10:18:28.677Z,100644.39
2019-03-11T10:20:58.083Z,100634.95
2019-03-11T10:23:32.102Z,100660.90
2019-03-11T10:25:58.690Z,100647.28
2019-03-11T10:28:31.233Z,100651.19
2019-03-11T10:31:00.807Z,100660.53
2019-03-11T10:33:30.221Z,100659.62
2019-03-11T10:35:59.737Z,100660.80
2019-03-11T10:38:29.153Z,100659.95
2019-03-11T10:40:58.569Z,100659.95
2019-03-11T10:43:28.084Z,100655.18
2019-03-11T10:45:57.576Z,100658.16
2019-03-11T10:48:36.636Z,100664.91
2019-03-11T10:50:58.204Z,100672.63
2019-03-11T10:53:29.242Z,100668.23
2019-03-11T10:56:00.027Z,100670.81
2019-03-11T10:58:29.632Z,100675.62
2019-03-11T11:00:59.062Z,100679.18
2019-03-11T11:03:28.487Z,100682.41
2019-03-11T11:05:57.911Z,100694.56
2019-03-11T11:08:27.332Z,100695.47
2019-03-11T11:10:56.752Z,100698.00
2019-03-11T11:13:26.184Z,100706.58
2019-03-11T11:15:55.685Z,100718.66
2019-03-11T11:18:25.094Z,100713.87
2019-03-11T11:20:54.670Z,100720.34
2019-03-11T11:23:24.146Z,100722.52
2019-03-11T11:25:53.724Z,100723.77
2019-03-11T11:28:23.130Z,100729.72
2019-03-11T11:30:52.603Z,100729.67
2019-03-11T11:33:22.051Z,100724.92
2019-03-11T11:35:52.544Z,100733.94
2019-03-11T11:38:21.987Z,100734.39
2019-03-11T11:40:51.433Z,100729.98
2019-03-11T11:43:20.841Z,100726.06
2019-03-11T11:45:50.242Z,100735.50
2019-03-11T11:48:20.206Z,100738.81
2019-03-11T11:50:49.614Z,100727.53
2019-03-11T11:53:20.562Z,100734.69
2019-03-11T11:55:57.528Z,100741.58
2019-03-11T11:58:22.905Z,100736.39
2019-03-11T12:00:52.469Z,100742.37
2019-03-11T12:03:24.677Z,100731.98
2019-03-11T12:05:54.079Z,100732.80
2019-03-11T12:08:23.577Z,100740.58
2019-03-11T12:10:53.005Z,100750.19
2019-03-11T12:13:22.495Z,100747.24
2019-03-11T12:15:51.993Z,100752.42
2019-03-11T12:18:21.405Z,100755.40
2019-03-11T12:20:50.896Z,100743.66
2019-03-11T12:23:20.312Z,100756.09
2019-03-11T12:25:54.065Z,100748.47
2019-03-11T12:28:23.546Z,100760.40
2019-03-11T12:30:53.009Z,100759.20
2019-03-11T12:33:24.881Z,100746.36
2019-03-11T12:35:54.403Z,100747.28
2019-03-11T12:38:23.877Z,100747.70
2019-03-11T12:40:53.317Z,100743.04
2019-03-11T12:43:22.736Z,100750.33
2019-03-11T12:45:53.804Z,100743.39
2019-03-11T12:48:23.241Z,100741.75
2019-03-11T12:50:52.758Z,100763.52
2019-03-11T12:53:22.185Z,100760.95
2019-03-11T12:55:51.724Z,100753.72
2019-03-11T12:58:21.194Z,100752.34
2019-03-11T13:00:50.695Z,100758.41
2019-03-11T13:03:20.129Z,100756.70
2019-03-11T13:05:49.694Z,100752.41
2019-03-11T13:08:19.185Z,100757.55
2019-03-11T13:10:48.622Z,100755.73
2019-03-11T13:13:19.260Z,100766.13
2019-03-11T13:15:48.840Z,100764.88
2019-03-11T13:18:38.804Z,100757.61
2019-03-11T13:21:25.945Z,100767.25
2019-03-11T13:23:55.426Z,100791.25
2019-03-11T13:26:24.954Z,100792.73
2019-03-11T13:28:54.438Z,100787.27
2019-03-11T13:31:23.955Z,100801.20
2019-03-11T13:33:53.443Z,100793.17
2019-03-11T13:36:23.034Z,100817.80
2019-03-11T13:38:52.511Z,100816.95
2019-03-11T13:41:21.962Z,100820.36
2019-03-11T13:43:51.434Z,100828.50
2019-03-11T13:46:22.804Z,100825.92
2019-03-11T13:48:53.797Z,100819.47
2019-03-11T13:51:23.277Z,100817.34
2019-03-11T13:53:56.081Z,100810.47
2019-03-11T13:56:25.858Z,100809.62
2019-03-11T13:58:55.369Z,100813.93
2019-03-11T14:01:24.790Z,100813.94
2019-03-11T14:03:54.360Z,100817.38
2019-03-11T14:06:23.872Z,100824.69
2019-03-11T14:08:53.371Z,100813.92
2019-03-11T14:11:22.788Z,100814.36
2019-03-11T14:13:52.217Z,100830.28
2019-03-11T14:16:21.640Z,100820.39
2019-03-11T14:18:51.096Z,100820.80
2019-03-11T14:21:25.727Z,100820.80
2019-03-11T14:23:51.642Z,100807.86
2019-03-11T14:26:21.305Z,100810.41
2019-03-11T14:28:51.065Z,100810.84
2019-03-11T14:31:23.326Z,100806.94
2019-03-11T14:33:52.814Z,100801.30
2019-03-11T14:36:22.250Z,100798.23
2019-03-11T14:38:51.666Z,100796.05
2019-03-11T14:41:21.184Z,100799.87
2019-03-11T14:43:54.141Z,100796.41
2019-03-11T14:46:24.010Z,100805.89
2019-03-11T14:48:53.457Z,100801.52
2019-03-11T14:51:22.886Z,100807.11
2019-03-11T14:53:52.301Z,100800.67
2019-03-11T14:56:21.749Z,100799.39
2019-03-11T14:58:51.151Z,100790.31
2019-03-11T15:01:23.917Z,100794.19
2019-03-11T15:03:53.327Z,100794.22
2019-03-11T15:06:22.781Z,100803.24
2019-03-11T15:08:52.201Z,100801.55
2019-03-11T15:11:21.713Z,100796.80
2019-03-11T15:13:51.217Z,100799.02
2019-03-11T15:16:23.959Z,100813.23
2019-03-11T15:18:53.447Z,100811.52
2019-03-11T15:21:22.962Z,100809.43
2019-03-11T15:23:52.461Z,100815.48
2019-03-11T15:26:25.414Z,100814.64
2019-03-11T15:28:53.165Z,100821.98
2019-03-11T15:31:24.193Z,100809.04
2019-03-11T15:33:53.769Z,100817.19
2019-03-11T15:36:33.057Z,100817.58
2019-03-11T15:38:54.748Z,100813.70
2019-03-11T15:41:24.515Z,100814.95
2019-03-11T15:43:54.135Z,100811.88
2019-03-11T15:46:23.649Z,100817.02
2019-03-11T15:48:54.136Z,100819.52
2019-03-11T15:51:36.035Z,100816.52
2019-03-11T15:53:54.821Z,100815.69
2019-03-11T15:56:26.151Z,100815.25
2019-03-11T15:58:55.559Z,100818.70
2019-03-11T16:01:25.040Z,100818.70
2019-03-11T16:03:57.466Z,100821.28
2019-03-11T16:06:26.980Z,100822.14
2019-03-11T16:08:56.424Z,100823.01
2019-03-11T16:11:26.518Z,100818.28
2019-03-11T16:13:56.027Z,100813.98
2019-03-11T16:16:25.570Z,100817.85
2019-03-11T16:18:55.090Z,100817.42
2019-03-11T16:21:24.518Z,100822.16
2019-03-11T16:23:55.705Z,100822.15
2019-03-11T16:26:25.188Z,100823.00
2019-03-11T16:28:54.713Z,100825.14
2019-03-11T16:31:26.959Z,100830.30
2019-03-11T16:33:56.480Z,100829.84
2019-03-11T16:36:25.889Z,100827.69
2019-03-11T16:38:55.327Z,100834.61
2019-03-11T16:41:24.806Z,100836.76
2019-03-11T16:43:55.285Z,100839.34
2019-03-11T16:46:24.922Z,100845.39
2019-03-11T16:48:54.375Z,100851.41
2019-03-11T16:51:26.392Z,100852.28
2019-03-11T16:53:55.885Z,100858.33
2019-03-11T16:56:25.369Z,100867.85
2019-03-11T16:58:54.903Z,100868.30
2019-03-11T17:01:24.456Z,100873.92
2019-03-11T17:03:53.897Z,100876.56
2019-03-11T17:06:23.405Z,100889.06
2019-03-11T17:08:52.895Z,100897.29
2019-03-11T17:11:22.407Z,100899.88
2019-03-11T17:13:51.998Z,100909.38
2019-03-11T17:16:21.438Z,100918.43
2019-03-11T17:18:50.999Z,100924.47
2019-03-11T17:21:20.505Z,100929.23
2019-03-11T17:23:50.143Z,100936.13
2019-03-11T17:26:19.555Z,100940.86
2019-03-11T17:28:50.065Z,100946.02
2019-03-11T17:31:19.539Z,100947.73
2019-03-11T17:33:48.995Z,100959.81
2019-03-11T17:36:18.569Z,100965.39
2019-03-11T17:38:48.075Z,100968.41
2019-03-11T17:41:17.555Z,100971.45
2019-03-11T17:43:47.055Z,100981.78
2019-03-11T17:46:16.467Z,100986.95
2019-03-11T17:48:46.039Z,100998.16
2019-03-11T17:51:15.526Z,101010.23
2019-03-11T17:53:47.677Z,101012.81
2019-03-11T17:56:17.238Z,101021.84
2019-03-11T17:58:46.752Z,101024.86
2019-03-11T18:01:16.313Z,101030.89
2019-03-11T18:03:46.063Z,101041.66
2019-03-11T18:06:15.625Z,101050.70
2019-03-11T18:08:45.218Z,101055.88
2019-03-11T18:11:14.937Z,101068.38
2019-03-11T18:13:44.485Z,101065.37
2019-03-11T18:16:13.988Z,101077.84
2019-03-11T18:18:43.410Z,101091.64
2019-03-11T18:21:12.933Z,101097.22
2019-03-11T18:23:42.488Z,101111.87
2019-03-11T18:26:13.550Z,101123.08
2019-03-11T18:28:43.125Z,101133.41
2019-03-11T18:31:12.616Z,101147.63
2019-03-11T18:33:42.379Z,101158.39
2019-03-11T18:36:12.096Z,101165.72
2019-03-11T18:38:41.725Z,101177.81
2019-03-11T18:41:11.266Z,101186.41
2019-03-11T18:43:43.049Z,101194.61
2019-03-11T18:46:11.875Z,101207.12
2019-03-11T18:48:41.399Z,101215.29
2019-03-11T18:51:11.489Z,101219.59
2019-03-11T18:53:40.926Z,101215.30
2019-03-11T18:56:10.498Z,101229.51
2019-03-11T18:58:50.950Z,101244.56
2019-03-11T19:01:20.522Z,101253.15
2019-03-11T19:03:49.927Z,101260.02
2019-03-11T19:06:19.443Z,101265.60
2019-03-11T19:08:49.234Z,101276.77
2019-03-11T19:11:18.914Z,101277.59
2019-03-11T19:13:48.328Z,101267.66
2019-03-11T19:16:17.831Z,101272.77
2019-03-11T19:18:47.331Z,101270.64
2019-03-11T19:21:17.045Z,101273.17
2019-03-11T19:23:46.496Z,101276.63
2019-03-11T19:26:15.956Z,101281.81
2019-03-11T19:28:45.782Z,101291.30
2019-03-11T19:31:16.702Z,101292.13
2019-03-11T19:33:47.361Z,101302.06
2019-03-11T19:36:16.929Z,101319.23
2019-03-11T19:38:46.602Z,101323.98
2019-03-11T19:41:16.205Z,101324.42
2019-03-11T19:43:45.749Z,101333.95
2019-03-11T19:46:15.271Z,101358.09
2019-03-11T19:48:47.336Z,101371.87
2019-03-11T19:51:16.955Z,101377.42
2019-03-11T19:53:46.511Z,101389.89
2019-03-11T19:56:18.971Z,101395.03
2019-03-11T19:58:48.461Z,101406.18
2019-03-11T20:01:17.911Z,101415.69
2019-03-11T20:03:47.415Z,101417.81
2019-03-11T20:06:17.011Z,101423.87
2019-03-11T20:08:46.628Z,101438.98
2019-03-11T20:11:16.073Z,101438.09
2019-03-11T20:13:47.147Z,101447.20
2019-03-11T20:16:16.666Z,101444.13
2019-03-11T20:18:46.231Z,101452.28
2019-03-11T20:21:17.525Z,101446.23
2019-03-11T20:23:47.239Z,101447.52
2019-03-11T20:26:18.997Z,101459.14
2019-03-11T20:28:48.584Z,101463.50
2019-03-11T20:31:18.194Z,101470.43
2019-03-11T20:33:47.763Z,101475.15
2019-03-11T20:36:21.098Z,101480.31
2019-03-11T20:38:48.452Z,101481.16
2019-03-11T20:41:17.984Z,101485.47
2019-03-11T20:43:50.671Z,101494.09
2019-03-11T20:46:20.175Z,101498.87
2019-03-11T20:48:49.619Z,101510.97
2019-03-11T20:51:19.116Z,101517.87
2019-03-11T20:53:48.551Z,101527.72
2019-03-11T20:56:18.030Z,101526.02
2019-03-11T20:58:47.507Z,101529.88
2019-03-11T21:01:16.971Z,101532.05
2019-03-11T21:03:47.593Z,101542.38
2019-03-11T21:06:17.186Z,101541.53
2019-03-11T21:08:46.671Z,101546.69
2019-03-11T21:11:16.144Z,101553.16
2019-03-11T21:13:45.665Z,101554.05
2019-03-11T21:16:15.074Z,101554.50
2019-03-11T21:18:44.630Z,101579.48
2019-03-11T21:21:15.434Z,101580.78
2019-03-11T21:23:45.008Z,101588.52
2019-03-11T21:26:14.519Z,101575.20
2019-03-11T21:28:44.159Z,101591.59
2019-03-11T21:31:13.764Z,101596.30
2019-03-11T21:33:43.227Z,101604.52
2019-03-11T21:36:12.822Z,101608.50
2019-03-11T21:38:42.471Z,101601.14
2019-03-11T21:41:12.930Z,101605.02
2019-03-11T21:43:42.568Z,101598.11
2019-03-11T21:46:12.053Z,101604.57
2019-03-11T21:48:41.572Z,101604.62
2019-03-11T21:51:11.166Z,101613.62
2019-03-11T21:53:40.576Z,101614.49
2019-03-11T21:56:10.052Z,101633.91
2019-03-11T21:58:39.620Z,101636.59
2019-03-11T22:01:09.065Z,101634.81
2019-03-11T22:03:39.257Z,101637.84
2019-03-11T22:06:08.692Z,101639.58
2019-03-11T22:08:38.096Z,101623.63
2019-03-11T22:11:07.850Z,101632.69
2019-03-11T22:13:37.339Z,101643.82
2019-03-11T22:16:06.775Z,101657.22
2019-03-11T22:18:36.193Z,101655.48
2019-03-11T22:21:05.623Z,101663.17
2019-03-11T22:23:35.113Z,101658.89
2019-03-11T22:26:04.691Z,101665.76
2019-03-11T22:28:34.108Z,101676.98
2019-03-11T22:31:03.611Z,101673.51
2019-03-11T22:33:34.908Z,101678.20
2019-03-11T22:36:04.293Z,101681.66
2019-03-11T22:38:33.712Z,101681.69
2019-03-11T22:41:03.283Z,101689.91
2019-03-11T22:43:34.383Z,101706.24
2019-03-11T22:46:03.858Z,101716.18
2019-03-11T22:48:33.280Z,101718.28
2019-03-11T22:51:02.785Z,101717.48
2019-03-11T22:53:32.287Z,101712.70
2019-03-11T22:56:01.730Z,101712.22
2019-03-11T22:58:31.141Z,101719.05
2019-03-11T23:01:04.563Z,101719.48
2019-03-11T23:03:34.508Z,101722.55
2019-03-11T23:06:04.387Z,101724.20
2019-03-11T23:08:33.879Z,101721.20
2019-03-11T23:11:03.391Z,101720.41
2019-03-11T23:13:32.876Z,101728.14
2019-03-11T23:16:02.324Z,101727.67
2019-03-11T23:18:31.810Z,101720.80
2019-03-11T23:21:01.242Z,101729.39
2019-03-11T23:23:30.657Z,101728.19
2019-03-11T23:26:00.100Z,101730.74
2019-03-11T23:28:29.512Z,101738.89
2019-03-11T23:30:59.015Z,101737.57
2019-03-11T23:33:28.436Z,101732.74
2019-03-11T23:35:57.922Z,101736.19
2019-03-11T23:38:30.022Z,101744.69
2019-03-11T23:40:59.464Z,101742.06
2019-03-11T23:43:28.940Z,101748.02
2019-03-11T23:45:58.385Z,101747.95
2019-03-11T23:48:27.798Z,101741.81
2019-03-11T23:50:57.222Z,101737.91
2019-03-11T23:53:26.654Z,101738.31
2019-03-11T23:55:57.586Z,101742.55
2019-03-11T23:58:27.028Z,101740.81
